sensor_id;sensor_type;location;lat;lon;timestamp;P1;durP1;ratioP1;P2;durP2;ratioP2
22060;SDS011;11194;48.092;-1.382;2024-02-15T00:01:01;577.10;;;537.63;;
22060;SDS011;11194;48.092;-1.382;2024-02-15T00:03:27;591.30;;;551.03;;
22060;SDS011;11194;48.092;-1.382;2024-02-15T00:05:53;580.88;;;541.50;;
22060;SDS011;11194;48.092;-1.382;2024-02-15T00:08:19;584.78;;;544.78;;
22060;SDS011;11194;48.092;-1.382;2024-02-15T00:10:46;573.08;;;533.42;;
22060;SDS011;11194;48.092;-1.382;2024-02-15T00:13:15;571.80;;;531.75;;
22060;SDS011;11194;48.092;-1.382;2024-02-15T00:15:41;576.50;;;535.83;;
22060;SDS011;11194;48.092;-1.382;2024-02-15T00:18:07;586.45;;;545.42;;
22060;SDS011;11194;48.092;-1.382;2024-02-15T00:20:33;572.95;;;532.80;;
22060;SDS011;11194;48.092;-1.382;2024-02-15T00:22:59;570.28;;;530.72;;
22060;SDS011;11194;48.092;-1.382;2024-02-15T00:25:25;549.28;;;512.35;;
22060;SDS011;11194;48.092;-1.382;2024-02-15T00:27:51;506.05;;;473.58;;
22060;SDS011;11194;48.092;-1.382;2024-02-15T00:30:17;480.65;;;451.75;;
22060;SDS011;11194;48.092;-1.382;2024-02-15T00:32:43;454.80;;;427.92;;
22060;SDS011;11194;48.092;-1.382;2024-02-15T00:35:11;448.80;;;422.55;;
22060;SDS011;11194;48.092;-1.382;2024-02-15T00:37:38;460.70;;;434.23;;
22060;SDS011;11194;48.092;-1.382;2024-02-15T00:40:04;468.10;;;440.73;;
22060;SDS011;11194;48.092;-1.382;2024-02-15T00:42:30;463.85;;;436.95;;
22060;SDS011;11194;48.092;-1.382;2024-02-15T00:44:57;481.48;;;452.50;;
22060;SDS011;11194;48.092;-1.382;2024-02-15T00:47:23;494.85;;;464.40;;
22060;SDS011;11194;48.092;-1.382;2024-02-15T00:49:49;521.75;;;488.88;;
22060;SDS011;11194;48.092;-1.382;2024-02-15T00:52:17;532.20;;;497.63;;
22060;SDS011;11194;48.092;-1.382;2024-02-15T00:54:44;535.70;;;500.70;;
22060;SDS011;11194;48.092;-1.382;2024-02-15T00:57:10;543.85;;;507.25;;
22060;SDS011;11194;48.092;-1.382;2024-02-15T00:59:36;555.08;;;517.20;;
22060;SDS011;11194;48.092;-1.382;2024-02-15T01:02:02;546.50;;;509.38;;
22060;SDS011;11194;48.092;-1.382;2024-02-15T01:04:28;547.42;;;510.38;;
22060;SDS011;11194;48.092;-1.382;2024-02-15T01:06:55;545.88;;;508.85;;
22060;SDS011;11194;48.092;-1.382;2024-02-15T01:09:23;556.30;;;518.53;;
22060;SDS011;11194;48.092;-1.382;2024-02-15T01:11:49;565.20;;;526.90;;
22060;SDS011;11194;48.092;-1.382;2024-02-15T01:14:16;563.53;;;524.80;;
22060;SDS011;11194;48.092;-1.382;2024-02-15T01:16:42;565.95;;;526.92;;
22060;SDS011;11194;48.092;-1.382;2024-02-15T01:19:09;575.92;;;535.30;;
22060;SDS011;11194;48.092;-1.382;2024-02-15T01:21:35;576.58;;;535.42;;
22060;SDS011;11194;48.092;-1.382;2024-02-15T01:24:01;579.80;;;538.45;;
22060;SDS011;11194;48.092;-1.382;2024-02-15T01:26:28;588.95;;;546.47;;
22060;SDS011;11194;48.092;-1.382;2024-02-15T01:28:54;595.10;;;551.33;;
22060;SDS011;11194;48.092;-1.382;2024-02-15T01:31:21;580.50;;;537.45;;
22060;SDS011;11194;48.092;-1.382;2024-02-15T01:33:47;583.60;;;540.72;;
22060;SDS011;11194;48.092;-1.382;2024-02-15T01:36:14;577.53;;;535.47;;
22060;SDS011;11194;48.092;-1.382;2024-02-15T01:38:40;562.55;;;523.10;;
22060;SDS011;11194;48.092;-1.382;2024-02-15T01:41:07;519.72;;;483.65;;
22060;SDS011;11194;48.092;-1.382;2024-02-15T01:43:33;504.80;;;470.10;;
22060;SDS011;11194;48.092;-1.382;2024-02-15T01:45:59;530.05;;;493.77;;
22060;SDS011;11194;48.092;-1.382;2024-02-15T01:48:29;524.67;;;488.45;;
22060;SDS011;11194;48.092;-1.382;2024-02-15T01:50:56;546.30;;;508.90;;
22060;SDS011;11194;48.092;-1.382;2024-02-15T01:53:23;561.53;;;523.00;;
22060;SDS011;11194;48.092;-1.382;2024-02-15T01:55:50;549.67;;;511.15;;
22060;SDS011;11194;48.092;-1.382;2024-02-15T01:58:18;560.17;;;520.40;;
22060;SDS011;11194;48.092;-1.382;2024-02-15T02:00:45;573.33;;;533.13;;
22060;SDS011;11194;48.092;-1.382;2024-02-15T02:03:11;544.67;;;505.73;;
22060;SDS011;11194;48.092;-1.382;2024-02-15T02:05:38;542.17;;;503.75;;
22060;SDS011;11194;48.092;-1.382;2024-02-15T02:08:05;537.92;;;500.33;;
22060;SDS011;11194;48.092;-1.382;2024-02-15T02:10:34;530.15;;;492.67;;
22060;SDS011;11194;48.092;-1.382;2024-02-15T02:13:00;551.42;;;512.95;;
22060;SDS011;11194;48.092;-1.382;2024-02-15T02:15:33;544.47;;;505.67;;
22060;SDS011;11194;48.092;-1.382;2024-02-15T02:18:02;572.22;;;532.05;;
22060;SDS011;11194;48.092;-1.382;2024-02-15T02:20:28;573.85;;;532.58;;
22060;SDS011;11194;48.092;-1.382;2024-02-15T02:22:54;574.90;;;533.25;;
22060;SDS011;11194;48.092;-1.382;2024-02-15T02:25:25;588.08;;;545.38;;
22060;SDS011;11194;48.092;-1.382;2024-02-15T02:27:51;574.92;;;533.55;;
22060;SDS011;11194;48.092;-1.382;2024-02-15T02:30:17;578.80;;;537.28;;
22060;SDS011;11194;48.092;-1.382;2024-02-15T02:32:47;573.17;;;532.22;;
22060;SDS011;11194;48.092;-1.382;2024-02-15T02:35:13;584.97;;;543.28;;
22060;SDS011;11194;48.092;-1.382;2024-02-15T02:37:41;555.75;;;516.35;;
22060;SDS011;11194;48.092;-1.382;2024-02-15T02:40:07;538.50;;;499.85;;
22060;SDS011;11194;48.092;-1.382;2024-02-15T02:42:35;558.95;;;519.95;;
22060;SDS011;11194;48.092;-1.382;2024-02-15T02:45:01;560.55;;;521.90;;
22060;SDS011;11194;48.092;-1.382;2024-02-15T02:47:27;580.03;;;539.80;;
22060;SDS011;11194;48.092;-1.382;2024-02-15T02:49:53;577.78;;;536.90;;
22060;SDS011;11194;48.092;-1.382;2024-02-15T02:52:19;571.78;;;531.15;;
22060;SDS011;11194;48.092;-1.382;2024-02-15T02:54:45;554.22;;;514.47;;
22060;SDS011;11194;48.092;-1.382;2024-02-15T02:57:11;560.35;;;520.13;;
22060;SDS011;11194;48.092;-1.382;2024-02-15T02:59:37;580.15;;;539.10;;
22060;SDS011;11194;48.092;-1.382;2024-02-15T03:02:04;575.40;;;534.80;;
22060;SDS011;11194;48.092;-1.382;2024-02-15T03:04:33;562.60;;;522.63;;
22060;SDS011;11194;48.092;-1.382;2024-02-15T03:06:59;575.58;;;535.30;;
22060;SDS011;11194;48.092;-1.382;2024-02-15T03:09:25;570.53;;;529.97;;
22060;SDS011;11194;48.092;-1.382;2024-02-15T03:11:54;573.97;;;533.22;;
22060;SDS011;11194;48.092;-1.382;2024-02-15T03:14:21;567.97;;;527.47;;
22060;SDS011;11194;48.092;-1.382;2024-02-15T03:16:47;580.10;;;539.50;;
22060;SDS011;11194;48.092;-1.382;2024-02-15T03:19:13;574.17;;;533.72;;
22060;SDS011;11194;48.092;-1.382;2024-02-15T03:21:39;576.30;;;536.55;;
22060;SDS011;11194;48.092;-1.382;2024-02-15T03:24:07;536.00;;;501.67;;
22060;SDS011;11194;48.092;-1.382;2024-02-15T03:26:33;539.20;;;504.42;;
22060;SDS011;11194;48.092;-1.382;2024-02-15T03:29:04;515.85;;;482.27;;
22060;SDS011;11194;48.092;-1.382;2024-02-15T03:31:30;479.92;;;449.58;;
22060;SDS011;11194;48.092;-1.382;2024-02-15T03:33:57;492.75;;;460.80;;
22060;SDS011;11194;48.092;-1.382;2024-02-15T03:36:24;507.73;;;474.95;;
22060;SDS011;11194;48.092;-1.382;2024-02-15T03:38:50;520.17;;;486.42;;
22060;SDS011;11194;48.092;-1.382;2024-02-15T03:41:18;514.85;;;481.30;;
22060;SDS011;11194;48.092;-1.382;2024-02-15T03:43:45;501.65;;;469.33;;
22060;SDS011;11194;48.092;-1.382;2024-02-15T03:46:12;470.92;;;440.35;;
22060;SDS011;11194;48.092;-1.382;2024-02-15T03:48:40;482.42;;;452.02;;
22060;SDS011;11194;48.092;-1.382;2024-02-15T03:51:06;501.08;;;468.63;;
22060;SDS011;11194;48.092;-1.382;2024-02-15T03:53:34;476.60;;;445.73;;
22060;SDS011;11194;48.092;-1.382;2024-02-15T03:56:03;485.98;;;454.60;;
22060;SDS011;11194;48.092;-1.382;2024-02-15T03:58:29;474.98;;;443.85;;
22060;SDS011;11194;48.092;-1.382;2024-02-15T04:00:59;471.77;;;442.30;;
22060;SDS011;11194;48.092;-1.382;2024-02-15T04:03:25;473.13;;;443.52;;
22060;SDS011;11194;48.092;-1.382;2024-02-15T04:05:51;490.98;;;459.88;;
22060;SDS011;11194;48.092;-1.382;2024-02-15T04:08:17;486.80;;;455.98;;
22060;SDS011;11194;48.092;-1.382;2024-02-15T04:10:44;486.25;;;455.02;;
22060;SDS011;11194;48.092;-1.382;2024-02-15T04:13:11;455.88;;;425.33;;
22060;SDS011;11194;48.092;-1.382;2024-02-15T04:15:37;480.83;;;450.33;;
22060;SDS011;11194;48.092;-1.382;2024-02-15T04:18:03;504.73;;;472.42;;
22060;SDS011;11194;48.092;-1.382;2024-02-15T04:20:29;504.17;;;470.80;;
22060;SDS011;11194;48.092;-1.382;2024-02-15T04:22:55;515.28;;;481.58;;
22060;SDS011;11194;48.092;-1.382;2024-02-15T04:25:23;536.60;;;501.65;;
22060;SDS011;11194;48.092;-1.382;2024-02-15T04:27:52;509.38;;;476.23;;
22060;SDS011;11194;48.092;-1.382;2024-02-15T04:30:19;520.95;;;486.30;;
22060;SDS011;11194;48.092;-1.382;2024-02-15T04:32:47;533.80;;;497.98;;
22060;SDS011;11194;48.092;-1.382;2024-02-15T04:35:13;509.38;;;475.05;;
22060;SDS011;11194;48.092;-1.382;2024-02-15T04:37:39;512.15;;;478.55;;
22060;SDS011;11194;48.092;-1.382;2024-02-15T04:40:05;504.17;;;470.08;;
22060;SDS011;11194;48.092;-1.382;2024-02-15T04:42:35;508.48;;;474.27;;
22060;SDS011;11194;48.092;-1.382;2024-02-15T04:45:05;515.35;;;481.15;;
22060;SDS011;11194;48.092;-1.382;2024-02-15T04:47:33;525.78;;;491.33;;
22060;SDS011;11194;48.092;-1.382;2024-02-15T04:49:59;532.08;;;497.10;;
22060;SDS011;11194;48.092;-1.382;2024-02-15T04:52:26;509.70;;;475.52;;
22060;SDS011;11194;48.092;-1.382;2024-02-15T04:54:52;488.33;;;455.52;;
22060;SDS011;11194;48.092;-1.382;2024-02-15T04:57:19;496.48;;;463.92;;
22060;SDS011;11194;48.092;-1.382;2024-02-15T04:59:45;495.45;;;463.05;;
22060;SDS011;11194;48.092;-1.382;2024-02-15T05:02:13;481.92;;;450.42;;
22060;SDS011;11194;48.092;-1.382;2024-02-15T05:04:39;444.08;;;416.33;;
22060;SDS011;11194;48.092;-1.382;2024-02-15T05:07:07;413.05;;;388.55;;
22060;SDS011;11194;48.092;-1.382;2024-02-15T05:09:34;425.67;;;399.23;;
22060;SDS011;11194;48.092;-1.382;2024-02-15T05:12:00;407.20;;;383.13;;
22060;SDS011;11194;48.092;-1.382;2024-02-15T05:14:30;395.25;;;372.13;;
22060;SDS011;11194;48.092;-1.382;2024-02-15T05:16:56;393.35;;;370.63;;
22060;SDS011;11194;48.092;-1.382;2024-02-15T05:19:22;396.95;;;373.48;;
22060;SDS011;11194;48.092;-1.382;2024-02-15T05:21:48;412.63;;;388.63;;
22060;SDS011;11194;48.092;-1.382;2024-02-15T05:24:16;403.05;;;379.52;;
22060;SDS011;11194;48.092;-1.382;2024-02-15T05:26:45;403.95;;;380.45;;
22060;SDS011;11194;48.092;-1.382;2024-02-15T05:29:15;402.55;;;378.30;;
22060;SDS011;11194;48.092;-1.382;2024-02-15T05:31:42;400.05;;;376.38;;
22060;SDS011;11194;48.092;-1.382;2024-02-15T05:34:10;426.50;;;400.77;;
22060;SDS011;11194;48.092;-1.382;2024-02-15T05:36:36;444.58;;;418.50;;
22060;SDS011;11194;48.092;-1.382;2024-02-15T05:39:03;425.63;;;400.35;;
22060;SDS011;11194;48.092;-1.382;2024-02-15T05:41:30;430.67;;;405.15;;
22060;SDS011;11194;48.092;-1.382;2024-02-15T05:43:57;440.50;;;414.33;;
22060;SDS011;11194;48.092;-1.382;2024-02-15T05:46:24;447.48;;;420.63;;
22060;SDS011;11194;48.092;-1.382;2024-02-15T05:48:50;460.13;;;433.13;;
22060;SDS011;11194;48.092;-1.382;2024-02-15T05:51:16;437.25;;;411.98;;
22060;SDS011;11194;48.092;-1.382;2024-02-15T05:53:43;439.45;;;412.98;;
22060;SDS011;11194;48.092;-1.382;2024-02-15T05:56:09;438.73;;;411.88;;
22060;SDS011;11194;48.092;-1.382;2024-02-15T05:58:36;454.33;;;426.75;;
22060;SDS011;11194;48.092;-1.382;2024-02-15T06:01:03;465.75;;;437.33;;
22060;SDS011;11194;48.092;-1.382;2024-02-15T06:03:33;467.80;;;440.30;;
22060;SDS011;11194;48.092;-1.382;2024-02-15T06:06:01;464.42;;;436.70;;
22060;SDS011;11194;48.092;-1.382;2024-02-15T06:08:31;457.70;;;430.73;;
22060;SDS011;11194;48.092;-1.382;2024-02-15T06:10:57;441.70;;;415.92;;
22060;SDS011;11194;48.092;-1.382;2024-02-15T06:13:24;437.83;;;412.27;;
22060;SDS011;11194;48.092;-1.382;2024-02-15T06:15:50;444.95;;;418.90;;
22060;SDS011;11194;48.092;-1.382;2024-02-15T06:18:20;438.48;;;413.20;;
22060;SDS011;11194;48.092;-1.382;2024-02-15T06:20:47;436.55;;;411.55;;
22060;SDS011;11194;48.092;-1.382;2024-02-15T06:23:16;423.98;;;399.98;;
22060;SDS011;11194;48.092;-1.382;2024-02-15T06:25:43;409.13;;;386.55;;
22060;SDS011;11194;48.092;-1.382;2024-02-15T06:28:09;389.67;;;367.83;;
22060;SDS011;11194;48.092;-1.382;2024-02-15T06:30:44;407.17;;;384.70;;
22060;SDS011;11194;48.092;-1.382;2024-02-15T06:33:29;411.27;;;388.48;;
22060;SDS011;11194;48.092;-1.382;2024-02-15T06:36:14;409.13;;;385.75;;
22060;SDS011;11194;48.092;-1.382;2024-02-15T06:38:59;434.58;;;409.60;;
22060;SDS011;11194;48.092;-1.382;2024-02-15T06:41:43;417.63;;;393.42;;
22060;SDS011;11194;48.092;-1.382;2024-02-15T06:44:09;438.05;;;413.10;;
22060;SDS011;11194;48.092;-1.382;2024-02-15T06:46:37;429.48;;;404.80;;
22060;SDS011;11194;48.092;-1.382;2024-02-15T06:49:03;429.50;;;405.10;;
22060;SDS011;11194;48.092;-1.382;2024-02-15T06:51:30;420.63;;;397.60;;
22060;SDS011;11194;48.092;-1.382;2024-02-15T06:53:56;418.45;;;394.10;;
22060;SDS011;11194;48.092;-1.382;2024-02-15T06:56:22;424.95;;;399.55;;
22060;SDS011;11194;48.092;-1.382;2024-02-15T06:58:49;420.38;;;395.33;;
22060;SDS011;11194;48.092;-1.382;2024-02-15T07:01:15;448.10;;;421.75;;
22060;SDS011;11194;48.092;-1.382;2024-02-15T07:03:42;439.17;;;413.00;;
22060;SDS011;11194;48.092;-1.382;2024-02-15T07:06:10;438.42;;;411.42;;
22060;SDS011;11194;48.092;-1.382;2024-02-15T07:08:38;430.38;;;404.02;;
22060;SDS011;11194;48.092;-1.382;2024-02-15T07:11:06;428.23;;;402.55;;
22060;SDS011;11194;48.092;-1.382;2024-02-15T07:13:34;394.15;;;372.00;;
22060;SDS011;11194;48.092;-1.382;2024-02-15T07:16:01;386.95;;;365.58;;
22060;SDS011;11194;48.092;-1.382;2024-02-15T07:18:28;365.70;;;346.15;;
22060;SDS011;11194;48.092;-1.382;2024-02-15T07:20:54;358.92;;;339.92;;
22060;SDS011;11194;48.092;-1.382;2024-02-15T07:23:24;376.10;;;355.52;;
22060;SDS011;11194;48.092;-1.382;2024-02-15T07:25:50;380.88;;;360.17;;
22060;SDS011;11194;48.092;-1.382;2024-02-15T07:28:18;393.25;;;371.35;;
22060;SDS011;11194;48.092;-1.382;2024-02-15T07:30:45;394.13;;;372.52;;
22060;SDS011;11194;48.092;-1.382;2024-02-15T07:33:14;407.65;;;385.50;;
22060;SDS011;11194;48.092;-1.382;2024-02-15T07:35:43;346.63;;;329.38;;
22060;SDS011;11194;48.092;-1.382;2024-02-15T07:38:09;354.77;;;337.45;;
22060;SDS011;11194;48.092;-1.382;2024-02-15T07:40:35;358.88;;;341.15;;
22060;SDS011;11194;48.092;-1.382;2024-02-15T07:43:01;362.13;;;344.67;;
22060;SDS011;11194;48.092;-1.382;2024-02-15T07:45:28;356.95;;;339.60;;
22060;SDS011;11194;48.092;-1.382;2024-02-15T07:47:54;352.77;;;336.25;;
22060;SDS011;11194;48.092;-1.382;2024-02-15T07:50:20;371.25;;;352.88;;
22060;SDS011;11194;48.092;-1.382;2024-02-15T07:52:48;404.55;;;383.50;;
22060;SDS011;11194;48.092;-1.382;2024-02-15T07:55:14;401.73;;;380.85;;
22060;SDS011;11194;48.092;-1.382;2024-02-15T07:57:41;406.65;;;386.00;;
22060;SDS011;11194;48.092;-1.382;2024-02-15T08:00:07;373.30;;;354.67;;
22060;SDS011;11194;48.092;-1.382;2024-02-15T08:02:37;369.17;;;351.25;;
22060;SDS011;11194;48.092;-1.382;2024-02-15T08:05:07;354.05;;;336.98;;
22060;SDS011;11194;48.092;-1.382;2024-02-15T08:07:41;336.85;;;321.10;;
22060;SDS011;11194;48.092;-1.382;2024-02-15T08:10:07;340.17;;;324.95;;
22060;SDS011;11194;48.092;-1.382;2024-02-15T08:15:06;330.42;;;315.77;;
22060;SDS011;11194;48.092;-1.382;2024-02-15T08:17:37;351.75;;;335.75;;
22060;SDS011;11194;48.092;-1.382;2024-02-15T08:20:04;331.70;;;316.98;;
22060;SDS011;11194;48.092;-1.382;2024-02-15T08:22:32;343.50;;;327.95;;
22060;SDS011;11194;48.092;-1.382;2024-02-15T08:24:58;341.63;;;326.10;;
22060;SDS011;11194;48.092;-1.382;2024-02-15T08:27:24;342.33;;;326.98;;
22060;SDS011;11194;48.092;-1.382;2024-02-15T08:29:50;331.25;;;316.63;;
22060;SDS011;11194;48.092;-1.382;2024-02-15T08:32:16;336.40;;;321.17;;
22060;SDS011;11194;48.092;-1.382;2024-02-15T08:34:42;345.00;;;329.15;;
22060;SDS011;11194;48.092;-1.382;2024-02-15T08:37:08;340.25;;;324.85;;
22060;SDS011;11194;48.092;-1.382;2024-02-15T08:39:35;335.80;;;320.38;;
22060;SDS011;11194;48.092;-1.382;2024-02-15T08:42:01;347.02;;;331.13;;
22060;SDS011;11194;48.092;-1.382;2024-02-15T08:44:29;359.08;;;342.13;;
22060;SDS011;11194;48.092;-1.382;2024-02-15T08:46:55;348.25;;;332.58;;
22060;SDS011;11194;48.092;-1.382;2024-02-15T08:49:21;352.67;;;336.50;;
22060;SDS011;11194;48.092;-1.382;2024-02-15T08:51:47;337.50;;;321.98;;
22060;SDS011;11194;48.092;-1.382;2024-02-15T08:54:13;304.88;;;291.13;;
22060;SDS011;11194;48.092;-1.382;2024-02-15T08:56:39;326.88;;;311.63;;
22060;SDS011;11194;48.092;-1.382;2024-02-15T08:59:05;290.92;;;278.20;;
22060;SDS011;11194;48.092;-1.382;2024-02-15T09:01:31;309.33;;;295.10;;
22060;SDS011;11194;48.092;-1.382;2024-02-15T09:03:58;324.77;;;309.60;;
22060;SDS011;11194;48.092;-1.382;2024-02-15T09:06:24;309.75;;;295.35;;
22060;SDS011;11194;48.092;-1.382;2024-02-15T09:08:51;294.13;;;281.08;;
22060;SDS011;11194;48.092;-1.382;2024-02-15T09:11:17;280.35;;;268.40;;
22060;SDS011;11194;48.092;-1.382;2024-02-15T09:13:44;263.60;;;252.85;;
22060;SDS011;11194;48.092;-1.382;2024-02-15T09:16:10;271.17;;;260.33;;
22060;SDS011;11194;48.092;-1.382;2024-02-15T09:18:36;288.27;;;276.48;;
22060;SDS011;11194;48.092;-1.382;2024-02-15T09:21:03;299.42;;;287.48;;
22060;SDS011;11194;48.092;-1.382;2024-02-15T09:23:30;278.60;;;267.65;;
22060;SDS011;11194;48.092;-1.382;2024-02-15T09:25:56;224.88;;;216.70;;
22060;SDS011;11194;48.092;-1.382;2024-02-15T09:28:22;167.30;;;161.30;;
22060;SDS011;11194;48.092;-1.382;2024-02-15T09:30:49;186.27;;;179.63;;
22060;SDS011;11194;48.092;-1.382;2024-02-15T09:33:24;142.65;;;137.50;;
22060;SDS011;11194;48.092;-1.382;2024-02-15T09:35:51;138.85;;;133.80;;
22060;SDS011;11194;48.092;-1.382;2024-02-15T09:38:19;168.70;;;162.68;;
22060;SDS011;11194;48.092;-1.382;2024-02-15T09:40:49;139.23;;;134.20;;
22060;SDS011;11194;48.092;-1.382;2024-02-15T09:43:16;133.60;;;128.75;;
22060;SDS011;11194;48.092;-1.382;2024-02-15T09:45:42;137.48;;;132.48;;
22060;SDS011;11194;48.092;-1.382;2024-02-15T09:48:09;114.15;;;109.95;;
22060;SDS011;11194;48.092;-1.382;2024-02-15T09:50:39;116.47;;;112.20;;
22060;SDS011;11194;48.092;-1.382;2024-02-15T09:53:07;58.50;;;56.20;;
22060;SDS011;11194;48.092;-1.382;2024-02-15T09:55:34;35.92;;;34.50;;
22060;SDS011;11194;48.092;-1.382;2024-02-15T09:58:01;52.38;;;50.28;;
22060;SDS011;11194;48.092;-1.382;2024-02-15T10:00:29;103.07;;;99.25;;
22060;SDS011;11194;48.092;-1.382;2024-02-15T10:02:55;83.22;;;80.07;;
22060;SDS011;11194;48.092;-1.382;2024-02-15T10:05:22;70.30;;;67.55;;
22060;SDS011;11194;48.092;-1.382;2024-02-15T10:07:48;64.57;;;62.00;;
22060;SDS011;11194;48.092;-1.382;2024-02-15T10:10:18;31.15;;;29.95;;
22060;SDS011;11194;48.092;-1.382;2024-02-15T10:12:48;42.33;;;40.63;;
22060;SDS011;11194;48.092;-1.382;2024-02-15T10:17:59;23.05;;;22.15;;
22060;SDS011;11194;48.092;-1.382;2024-02-15T10:20:25;11.93;;;11.45;;
22060;SDS011;11194;48.092;-1.382;2024-02-15T10:22:52;5.93;;;5.72;;
22060;SDS011;11194;48.092;-1.382;2024-02-15T10:25:20;5.88;;;5.68;;
22060;SDS011;11194;48.092;-1.382;2024-02-15T10:27:47;9.50;;;9.13;;
22060;SDS011;11194;48.092;-1.382;2024-02-15T10:30:14;7.22;;;6.93;;
22060;SDS011;11194;48.092;-1.382;2024-02-15T10:32:40;7.20;;;6.90;;
22060;SDS011;11194;48.092;-1.382;2024-02-15T10:35:07;7.35;;;7.05;;
22060;SDS011;11194;48.092;-1.382;2024-02-15T10:37:33;13.88;;;13.38;;
22060;SDS011;11194;48.092;-1.382;2024-02-15T10:40:07;10.55;;;10.15;;
22060;SDS011;11194;48.092;-1.382;2024-02-15T10:42:34;15.93;;;15.32;;
22060;SDS011;11194;48.092;-1.382;2024-02-15T10:45:02;21.88;;;21.00;;
22060;SDS011;11194;48.092;-1.382;2024-02-15T10:47:35;18.90;;;18.20;;
22060;SDS011;11194;48.092;-1.382;2024-02-15T10:50:04;26.63;;;25.58;;
22060;SDS011;11194;48.092;-1.382;2024-02-15T10:52:31;37.83;;;36.33;;
22060;SDS011;11194;48.092;-1.382;2024-02-15T10:55:01;29.85;;;28.67;;
22060;SDS011;11194;48.092;-1.382;2024-02-15T10:57:30;26.00;;;24.98;;
22060;SDS011;11194;48.092;-1.382;2024-02-15T10:59:58;17.98;;;17.27;;
22060;SDS011;11194;48.092;-1.382;2024-02-15T11:02:38;56.90;;;54.63;;
22060;SDS011;11194;48.092;-1.382;2024-02-15T11:05:08;35.10;;;33.70;;
22060;SDS011;11194;48.092;-1.382;2024-02-15T11:07:39;29.23;;;28.05;;
22060;SDS011;11194;48.092;-1.382;2024-02-15T11:10:09;23.80;;;22.85;;
22060;SDS011;11194;48.092;-1.382;2024-02-15T11:12:36;34.75;;;33.35;;
22060;SDS011;11194;48.092;-1.382;2024-02-15T11:15:02;31.92;;;30.65;;
22060;SDS011;11194;48.092;-1.382;2024-02-15T11:22:59;7.40;;;7.10;;
22060;SDS011;11194;48.092;-1.382;2024-02-15T11:25:36;8.45;;;8.15;;
22060;SDS011;11194;48.092;-1.382;2024-02-15T11:30:47;12.25;;;11.75;;
22060;SDS011;11194;48.092;-1.382;2024-02-15T11:33:32;9.82;;;9.43;;
22060;SDS011;11194;48.092;-1.382;2024-02-15T11:36:02;3.83;;;3.72;;
22060;SDS011;11194;48.092;-1.382;2024-02-15T11:38:32;16.15;;;15.55;;
22060;SDS011;11194;48.092;-1.382;2024-02-15T11:40:59;7.53;;;7.22;;
22060;SDS011;11194;48.092;-1.382;2024-02-15T11:46:17;8.77;;;8.48;;
22060;SDS011;11194;48.092;-1.382;2024-02-15T11:48:44;5.63;;;5.43;;
22060;SDS011;11194;48.092;-1.382;2024-02-15T11:51:23;2.28;;;2.17;;
22060;SDS011;11194;48.092;-1.382;2024-02-15T11:56:30;2.88;;;2.78;;
22060;SDS011;11194;48.092;-1.382;2024-02-15T11:59:02;3.83;;;3.72;;
22060;SDS011;11194;48.092;-1.382;2024-02-15T12:01:31;6.15;;;5.95;;
22060;SDS011;11194;48.092;-1.382;2024-02-15T12:04:20;6.32;;;6.13;;
22060;SDS011;11194;48.092;-1.382;2024-02-15T12:07:05;7.75;;;7.45;;
22060;SDS011;11194;48.092;-1.382;2024-02-15T12:09:49;14.65;;;14.07;;
22060;SDS011;11194;48.092;-1.382;2024-02-15T12:12:34;7.13;;;6.82;;
22060;SDS011;11194;48.092;-1.382;2024-02-15T12:15:19;12.73;;;12.23;;
22060;SDS011;11194;48.092;-1.382;2024-02-15T12:18:13;12.00;;;11.52;;
22060;SDS011;11194;48.092;-1.382;2024-02-15T12:20:58;8.32;;;8.02;;
22060;SDS011;11194;48.092;-1.382;2024-02-15T12:23:24;13.65;;;13.15;;
22060;SDS011;11194;48.092;-1.382;2024-02-15T12:25:52;21.75;;;20.88;;
22060;SDS011;11194;48.092;-1.382;2024-02-15T12:28:18;21.83;;;20.95;;
22060;SDS011;11194;48.092;-1.382;2024-02-15T12:30:44;12.45;;;11.95;;
22060;SDS011;11194;48.092;-1.382;2024-02-15T12:33:12;17.73;;;17.02;;
22060;SDS011;11194;48.092;-1.382;2024-02-15T12:35:44;8.85;;;8.55;;
22060;SDS011;11194;48.092;-1.382;2024-02-15T12:38:12;10.80;;;10.40;;
22060;SDS011;11194;48.092;-1.382;2024-02-15T12:40:41;15.43;;;14.82;;
22060;SDS011;11194;48.092;-1.382;2024-02-15T12:43:08;19.35;;;18.60;;
22060;SDS011;11194;48.092;-1.382;2024-02-15T12:45:40;16.88;;;16.20;;
22060;SDS011;11194;48.092;-1.382;2024-02-15T12:48:07;7.15;;;6.85;;
22060;SDS011;11194;48.092;-1.382;2024-02-15T12:50:34;24.23;;;23.27;;
22060;SDS011;11194;48.092;-1.382;2024-02-15T12:53:00;17.65;;;16.95;;
22060;SDS011;11194;48.092;-1.382;2024-02-15T12:55:34;18.27;;;17.58;;
22060;SDS011;11194;48.092;-1.382;2024-02-15T12:58:01;28.27;;;27.17;;
22060;SDS011;11194;48.092;-1.382;2024-02-15T13:00:33;29.90;;;28.73;;
22060;SDS011;11194;48.092;-1.382;2024-02-15T13:03:05;25.13;;;24.13;;
22060;SDS011;11194;48.092;-1.382;2024-02-15T13:05:34;27.92;;;26.83;;
22060;SDS011;11194;48.092;-1.382;2024-02-15T13:08:01;32.08;;;30.80;;
22060;SDS011;11194;48.092;-1.382;2024-02-15T13:10:28;57.30;;;55.03;;
22060;SDS011;11194;48.092;-1.382;2024-02-15T13:12:54;34.63;;;33.25;;
22060;SDS011;11194;48.092;-1.382;2024-02-15T13:15:20;33.17;;;31.88;;
22060;SDS011;11194;48.092;-1.382;2024-02-15T13:17:47;21.27;;;20.48;;
22060;SDS011;11194;48.092;-1.382;2024-02-15T13:20:16;35.30;;;33.88;;
22060;SDS011;11194;48.092;-1.382;2024-02-15T13:22:45;30.15;;;28.95;;
22060;SDS011;11194;48.092;-1.382;2024-02-15T13:25:14;35.22;;;33.83;;
22060;SDS011;11194;48.092;-1.382;2024-02-15T13:27:46;25.13;;;24.13;;
22060;SDS011;11194;48.092;-1.382;2024-02-15T13:30:12;52.58;;;50.47;;
22060;SDS011;11194;48.092;-1.382;2024-02-15T13:32:39;79.47;;;76.45;;
22060;SDS011;11194;48.092;-1.382;2024-02-15T13:35:08;66.57;;;63.97;;
22060;SDS011;11194;48.092;-1.382;2024-02-15T13:37:46;38.33;;;36.80;;
22060;SDS011;11194;48.092;-1.382;2024-02-15T13:40:12;36.92;;;35.45;;
22060;SDS011;11194;48.092;-1.382;2024-02-15T13:42:42;65.93;;;63.38;;
22060;SDS011;11194;48.092;-1.382;2024-02-15T13:45:14;47.65;;;45.72;;
22060;SDS011;11194;48.092;-1.382;2024-02-15T13:47:41;45.10;;;43.30;;
22060;SDS011;11194;48.092;-1.382;2024-02-15T13:50:11;41.13;;;39.53;;
22060;SDS011;11194;48.092;-1.382;2024-02-15T13:52:39;39.15;;;37.60;;
22060;SDS011;11194;48.092;-1.382;2024-02-15T13:55:08;46.22;;;44.38;;
22060;SDS011;11194;48.092;-1.382;2024-02-15T13:57:36;54.85;;;52.65;;
22060;SDS011;11194;48.092;-1.382;2024-02-15T14:00:02;24.25;;;23.30;;
22060;SDS011;11194;48.092;-1.382;2024-02-15T14:02:30;15.45;;;14.85;;
22060;SDS011;11194;48.092;-1.382;2024-02-15T14:04:57;8.73;;;8.43;;
22060;SDS011;11194;48.092;-1.382;2024-02-15T14:07:23;16.98;;;16.30;;
22060;SDS011;11194;48.092;-1.382;2024-02-15T14:09:49;15.38;;;14.77;;
22060;SDS011;11194;48.092;-1.382;2024-02-15T14:12:15;20.25;;;19.45;;
22060;SDS011;11194;48.092;-1.382;2024-02-15T14:14:41;15.40;;;14.80;;
22060;SDS011;11194;48.092;-1.382;2024-02-15T14:17:08;10.73;;;10.32;;